createdAt,value
2023-04-18T00:02:38.846Z,101451.60
2023-04-18T00:07:41.899Z,101451.80
2023-04-18T00:12:45.259Z,101453.40
2023-04-18T00:17:48.966Z,101450.20
2023-04-18T00:22:53.377Z,101451.60
2023-04-18T00:27:56.185Z,101447.80
2023-04-18T00:32:59.209Z,101446.60
2023-04-18T00:38:02.124Z,101441.40
2023-04-18T00:43:07.547Z,101442.20
2023-04-18T00:48:10.999Z,101441.60
2023-04-18T00:53:15.691Z,101449.40
2023-04-18T00:58:18.536Z,101441.00
2023-04-18T01:03:23.131Z,101444.80
2023-04-18T01:08:26.234Z,101450.60
2023-04-18T01:13:29.113Z,101453.60
2023-04-18T01:18:32.582Z,101450.40
2023-04-18T01:23:35.830Z,101450.40
2023-04-18T01:28:38.651Z,101444.60
2023-04-18T01:33:41.522Z,101448.60
2023-04-18T01:38:44.437Z,101450.80
2023-04-18T01:43:47.275Z,101449.40
2023-04-18T01:48:50.408Z,101456.20
2023-04-18T01:53:53.457Z,101457.00
2023-04-18T01:58:56.413Z,101461.20
2023-04-18T02:03:59.334Z,101458.20
2023-04-18T02:09:02.287Z,101463.80
2023-04-18T02:14:06.143Z,101459.80
2023-04-18T02:19:09.268Z,101467.40
2023-04-18T02:24:12.334Z,101461.60
2023-04-18T02:29:15.548Z,101456.40
2023-04-18T02:34:18.427Z,101453.60
2023-04-18T02:39:21.695Z,101454.00
2023-04-18T02:44:24.709Z,101446.40
2023-04-18T02:49:27.702Z,101446.40
2023-04-18T02:54:30.624Z,101446.20
2023-04-18T02:59:33.489Z,101443.40
2023-04-18T03:04:36.432Z,101449.40
2023-04-18T03:09:39.318Z,101450.80
2023-04-18T03:14:42.468Z,101448.60
2023-04-18T03:19:46.501Z,101446.00
2023-04-18T03:24:49.455Z,101450.20
2023-04-18T03:29:52.316Z,101447.60
2023-04-18T03:34:55.225Z,101454.20
2023-04-18T03:39:58.042Z,101453.20
2023-04-18T03:45:00.865Z,101451.00
2023-04-18T03:50:04.143Z,101450.00
2023-04-18T03:55:07.419Z,101450.40
2023-04-18T04:00:11.199Z,101452.00
2023-04-18T04:05:14.015Z,101458.20
2023-04-18T04:10:16.962Z,101456.00
2023-04-18T04:15:19.857Z,101466.00
2023-04-18T04:20:26.748Z,101464.60
2023-04-18T04:25:29.923Z,101469.20
2023-04-18T04:30:33.754Z,101466.00
2023-04-18T04:35:36.732Z,101468.60
2023-04-18T04:40:39.584Z,101469.60
2023-04-18T04:45:44.722Z,101474.40
2023-04-18T04:50:59.487Z,101480.00
2023-04-18T04:56:02.502Z,101480.40
2023-04-18T05:01:07.779Z,101485.40
2023-04-18T05:06:10.880Z,101488.80
2023-04-18T05:11:13.843Z,101494.60
2023-04-18T05:16:16.921Z,101494.00
2023-04-18T05:21:19.811Z,101500.40
2023-04-18T05:26:23.258Z,101502.80
2023-04-18T05:31:26.964Z,101510.00
2023-04-18T05:36:29.893Z,101510.00
2023-04-18T05:41:35.468Z,101505.60
2023-04-18T05:46:38.574Z,101503.00
2023-04-18T05:51:44.391Z,101504.40
2023-04-18T05:56:48.482Z,101509.00
2023-04-18T06:01:51.531Z,101505.40
2023-04-18T06:06:54.934Z,101505.40
2023-04-18T06:11:58.373Z,101504.80
2023-04-18T06:17:01.365Z,101498.80
2023-04-18T06:22:04.239Z,101504.60
2023-04-18T06:27:09.368Z,101497.20
2023-04-18T06:32:17.991Z,101499.20
2023-04-18T06:37:21.228Z,101496.20
2023-04-18T06:42:24.650Z,101492.80
2023-04-18T06:47:28.038Z,101497.80
2023-04-18T06:52:30.946Z,101486.60
2023-04-18T06:57:33.837Z,101495.80
2023-04-18T07:02:41.256Z,101502.60
2023-04-18T07:07:44.463Z,101492.80
2023-04-18T07:12:47.692Z,101497.60
2023-04-18T07:17:50.619Z,101496.60
2023-04-18T07:22:53.470Z,101487.60
2023-04-18T07:27:56.603Z,101496.60
2023-04-18T07:32:59.501Z,101493.20
2023-04-18T07:38:02.546Z,101499.20
2023-04-18T07:43:05.553Z,101504.00
2023-04-18T07:48:08.494Z,101504.60
2023-04-18T07:53:11.482Z,101504.20
2023-04-18T07:58:14.456Z,101509.00
2023-04-18T08:03:17.457Z,101507.60
2023-04-18T08:08:20.973Z,101508.00
2023-04-18T08:13:23.849Z,101508.00
2023-04-18T08:18:26.793Z,101508.40
2023-04-18T08:23:29.766Z,101504.20
2023-04-18T08:28:32.688Z,101505.00
2023-04-18T08:33:35.824Z,101505.20
2023-04-18T08:38:38.633Z,101506.80
2023-04-18T08:43:41.503Z,101501.00
2023-04-18T08:48:45.191Z,101493.00
2023-04-18T08:53:48.690Z,101495.00
2023-04-18T08:58:52.351Z,101490.60
2023-04-18T09:03:55.345Z,101490.80
2023-04-18T09:08:59.272Z,101479.60
2023-04-18T09:14:02.729Z,101471.40
2023-04-18T09:19:13.250Z,101470.40
2023-04-18T09:24:24.887Z,101478.00
2023-04-18T09:29:49.621Z,101483.60
2023-04-18T09:35:05.589Z,101477.80
2023-04-18T09:40:19.165Z,101470.60
2023-04-18T09:45:24.364Z,101480.00
2023-04-18T09:50:27.315Z,101472.20
2023-04-18T09:55:32.138Z,101466.80
2023-04-18T10:00:38.334Z,101460.40
2023-04-18T10:05:42.248Z,101469.80
2023-04-18T10:10:45.339Z,101462.00
2023-04-18T10:15:51.809Z,101455.20
2023-04-18T10:21:05.319Z,101447.80
2023-04-18T10:26:10.273Z,101447.60
2023-04-18T10:31:13.239Z,101434.40
2023-04-18T10:36:20.864Z,101444.80
2023-04-18T10:41:32.696Z,101435.60
2023-04-18T10:46:37.690Z,101435.00
2023-04-18T10:51:41.121Z,101438.00
2023-04-18T10:56:59.623Z,101432.00
2023-04-18T11:02:29.794Z,101427.60
2023-04-18T11:07:49.019Z,101438.20
2023-04-18T11:12:55.559Z,101425.00
2023-04-18T11:18:03.506Z,101424.40
2023-04-18T11:23:18.786Z,101414.60
2023-04-18T11:28:24.934Z,101412.20
2023-04-18T11:33:29.476Z,101416.20
2023-04-18T11:38:32.442Z,101405.80
2023-04-18T11:43:35.338Z,101396.20
2023-04-18T11:48:43.468Z,101400.80
2023-04-18T11:53:46.820Z,101399.00
2023-04-18T11:58:49.778Z,101405.40
2023-04-18T12:04:04.425Z,101395.20
2023-04-18T12:09:07.571Z,101397.00
2023-04-18T12:14:21.826Z,101398.20
2023-04-18T12:19:29.450Z,101387.40
2023-04-18T12:24:33.036Z,101382.60
2023-04-18T12:29:35.939Z,101384.80
2023-04-18T12:34:38.814Z,101383.60
2023-04-18T12:39:41.677Z,101375.80
2023-04-18T12:44:45.851Z,101376.40
2023-04-18T12:49:50.516Z,101381.80
2023-04-18T12:54:53.908Z,101375.00
2023-04-18T12:59:57.046Z,101367.00
2023-04-18T13:05:08.868Z,101353.80
2023-04-18T13:10:19.353Z,101354.20
2023-04-18T13:15:24.021Z,101349.20
2023-04-18T13:20:27.057Z,101348.00
2023-04-18T13:25:30.061Z,101362.00
2023-04-18T13:30:35.819Z,101344.00
2023-04-18T13:35:42.012Z,101351.40
2023-04-18T13:40:47.363Z,101345.60
2023-04-18T13:45:50.522Z,101354.20
2023-04-18T13:50:54.317Z,101357.00
2023-04-18T13:55:57.537Z,101352.60
2023-04-18T14:01:01.251Z,101356.20
2023-04-18T14:06:05.128Z,101358.40
2023-04-18T14:11:08.956Z,101356.80
2023-04-18T14:21:36.686Z,101352.60
2023-04-18T14:26:40.269Z,101347.60
2023-04-18T14:31:43.606Z,101342.60
2023-04-18T14:36:47.053Z,101348.40
2023-04-18T14:41:50.589Z,101352.20
2023-04-18T14:46:54.047Z,101360.60
2023-04-18T14:51:57.639Z,101363.40
2023-04-18T14:57:01.882Z,101353.20
2023-04-18T15:02:05.327Z,101357.60
2023-04-18T15:07:11.369Z,101348.40
2023-04-18T15:12:14.538Z,101344.60
2023-04-18T15:17:17.703Z,101345.00
2023-04-18T15:22:20.813Z,101329.00
2023-04-18T15:27:24.019Z,101354.40
2023-04-18T15:32:28.768Z,101355.60
2023-04-18T15:37:32.955Z,101354.80
2023-04-18T15:42:37.253Z,101351.00
2023-04-18T15:47:42.089Z,101351.60
2023-04-18T15:52:45.402Z,101349.60
2023-04-18T15:57:48.768Z,101346.20
2023-04-18T16:02:52.018Z,101343.80
2023-04-18T16:07:56.398Z,101342.20
2023-04-18T16:12:59.671Z,101340.00
2023-04-18T16:18:02.654Z,101337.40
2023-04-18T16:23:05.699Z,101336.00
2023-04-18T16:28:10.572Z,101332.60
2023-04-18T16:33:16.854Z,101328.40
2023-04-18T16:38:24.111Z,101328.60
2023-04-18T16:43:31.705Z,101327.40
2023-04-18T16:48:38.214Z,101324.80
2023-04-18T16:53:42.895Z,101324.20
2023-04-18T16:58:46.357Z,101324.80
2023-04-18T17:03:49.756Z,101321.60
2023-04-18T17:08:54.385Z,101326.20
2023-04-18T17:13:58.071Z,101324.40
2023-04-18T17:19:01.813Z,101326.40
2023-04-18T17:24:07.381Z,101326.40
2023-04-18T17:29:12.825Z,101319.80
2023-04-18T17:34:45.873Z,101333.00
2023-04-18T17:39:50.312Z,101325.20
2023-04-18T17:44:55.354Z,101335.40
2023-04-18T17:50:04.807Z,101332.80
2023-04-18T17:55:08.521Z,101341.20
2023-04-18T18:00:13.828Z,101344.20
2023-04-18T18:05:17.396Z,101353.60
2023-04-18T18:10:20.734Z,101361.60
2023-04-18T18:15:27.006Z,101356.20
2023-04-18T18:20:31.252Z,101351.00
2023-04-18T18:25:37.282Z,101352.00
2023-04-18T18:30:40.760Z,101349.80
2023-04-18T18:35:43.767Z,101351.80
2023-04-18T18:40:46.834Z,101351.40
2023-04-18T18:45:50.027Z,101346.40
2023-04-18T18:50:52.930Z,101332.00
2023-04-18T18:55:56.553Z,101330.00
2023-04-18T19:01:02.433Z,101327.60
2023-04-18T19:06:07.422Z,101324.40
2023-04-18T19:11:12.814Z,101323.00
2023-04-18T19:16:15.789Z,101317.40
2023-04-18T19:21:20.254Z,101308.80
2023-04-18T19:26:23.222Z,101307.20
2023-04-18T19:31:26.284Z,101303.40
2023-04-18T19:36:29.402Z,101305.80
2023-04-18T19:41:32.248Z,101295.60
2023-04-18T19:46:35.321Z,101286.60
2023-04-18T19:51:40.381Z,101285.00
2023-04-18T19:56:43.468Z,101276.00
2023-04-18T20:01:49.163Z,101269.40
2023-04-18T20:06:53.591Z,101258.60
2023-04-18T20:12:00.495Z,101251.20
2023-04-18T20:17:03.418Z,101250.60
2023-04-18T20:22:06.604Z,101254.60
2023-04-18T20:27:09.548Z,101244.40
2023-04-18T20:32:12.470Z,101249.00
2023-04-18T20:37:18.162Z,101236.40
2023-04-18T20:42:21.179Z,101238.80
2023-04-18T20:47:24.199Z,101237.60
2023-04-18T20:52:27.143Z,101236.00
2023-04-18T20:57:30.111Z,101233.40
2023-04-18T21:02:33.370Z,101226.20
2023-04-18T21:07:36.967Z,101218.00
2023-04-18T21:12:39.797Z,101220.80
2023-04-18T21:17:42.699Z,101210.80
2023-04-18T21:22:45.547Z,101211.00
2023-04-18T21:27:50.778Z,101209.60
2023-04-18T21:32:53.846Z,101206.80
2023-04-18T21:37:57.055Z,101208.00
2023-04-18T21:42:59.899Z,101209.60
2023-04-18T21:48:02.809Z,101195.40
2023-04-18T21:53:05.644Z,101192.80
2023-04-18T21:58:08.518Z,101195.60
2023-04-18T22:03:11.737Z,101195.60
2023-04-18T22:08:17.492Z,101189.40
2023-04-18T22:13:22.020Z,101176.80
2023-04-18T22:18:25.420Z,101183.00
2023-04-18T22:23:28.495Z,101168.80
2023-04-18T22:28:32.430Z,101174.60
2023-04-18T22:33:35.421Z,101164.40
2023-04-18T22:38:38.338Z,101156.20
2023-04-18T22:43:41.271Z,101151.40
2023-04-18T22:48:45.002Z,101148.40
2023-04-18T22:53:47.798Z,101149.60
2023-04-18T22:58:51.053Z,101139.60
2023-04-18T23:03:54.201Z,101134.00
2023-04-18T23:08:57.257Z,101129.80
2023-04-18T23:14:00.149Z,101121.40
2023-04-18T23:19:04.542Z,101118.40
2023-04-18T23:24:07.824Z,101113.20
2023-04-18T23:29:10.683Z,101102.80
2023-04-18T23:34:13.851Z,101093.00
2023-04-18T23:39:18.660Z,101084.40
2023-04-18T23:44:21.786Z,101079.40
2023-04-18T23:49:25.470Z,101068.60
2023-04-18T23:54:28.495Z,101064.20
2023-04-18T23:59:31.298Z,101053.60
